Time;durP1;ratioP1;P1;durP2;ratioP2;P2;SDS_P1;SDS_P2;PMS_P1;PMS_P2;Temp;Humidity;BMP_temperature;BMP_pressure;BME280_temperature;BME280_humidity;BME280_pressure;Samples;Min_cycle;Max_cycle;Signal;HPM_P1;HPM_P2
2022/12/04 00:00:47;;;;;;;50.22;25.88;;;0.60;99.90;;;;;;5009281;28;20038;-85
2022/12/04 00:03:12;;;;;;;54.53;25.80;;;0.60;99.90;;;;;;5017767;28;20033;-85
2022/12/04 00:05:38;;;;;;;50.83;26.25;;;0.60;99.90;;;;;;5026544;28;20037;-85
2022/12/04 00:08:04;;;;;;;59.80;27.88;;;0.60;99.90;;;;;;5024547;28;20037;-86
2022/12/04 00:10:29;;;;;;;48.85;26.55;;;0.60;99.90;;;;;;5027239;28;20056;-85
2022/12/04 00:12:55;;;;;;;54.70;26.95;;;0.60;99.90;;;;;;5026794;28;20041;-85
2022/12/04 00:15:21;;;;;;;52.03;26.88;;;0.60;99.90;;;;;;5023421;28;20115;-85
2022/12/04 00:17:47;;;;;;;56.63;27.45;;;0.60;99.90;;;;;;5027191;28;20037;-85
2022/12/04 00:20:13;;;;;;;53.22;26.88;;;0.60;99.90;;;;;;5003983;28;20076;-85
2022/12/04 00:22:38;;;;;;;48.92;25.95;;;0.60;99.90;;;;;;5029729;28;20450;-85
2022/12/04 00:25:04;;;;;;;52.03;28.30;;;0.60;99.90;;;;;;5006355;28;20038;-85
2022/12/04 00:27:30;;;;;;;56.60;27.77;;;0.60;99.90;;;;;;5025943;28;20083;-85
2022/12/04 00:29:55;;;;;;;52.75;28.10;;;0.60;99.90;;;;;;5026339;28;20051;-85
2022/12/04 00:32:21;;;;;;;57.28;28.20;;;0.60;99.90;;;;;;5006759;28;20033;-85
2022/12/04 00:34:47;;;;;;;53.10;28.45;;;0.60;99.90;;;;;;5010873;28;20144;-85
2022/12/04 00:37:12;;;;;;;47.75;25.48;;;0.60;99.90;;;;;;5024101;28;20076;-85
2022/12/04 00:39:38;;;;;;;54.78;27.65;;;0.60;99.90;;;;;;5016628;28;20041;-85
2022/12/04 00:42:03;;;;;;;52.20;26.88;;;0.60;99.90;;;;;;5029308;28;20030;-85
2022/12/04 00:44:29;;;;;;;54.92;27.77;;;0.60;99.90;;;;;;5042053;28;20046;-85
2022/12/04 00:46:55;;;;;;;54.85;28.05;;;0.50;99.90;;;;;;5028879;28;20038;-85
2022/12/04 00:49:20;;;;;;;54.42;27.55;;;0.60;99.90;;;;;;5027310;28;20037;-86
2022/12/04 00:51:46;;;;;;;56.63;28.13;;;0.60;99.90;;;;;;5028800;28;20047;-85
2022/12/04 00:54:11;;;;;;;55.00;27.50;;;0.60;99.90;;;;;;5029794;28;20489;-85
2022/12/04 00:56:38;;;;;;;52.42;27.65;;;0.60;99.90;;;;;;5001940;28;20048;-85
2022/12/04 00:59:03;;;;;;;53.97;27.20;;;0.60;99.90;;;;;;5013446;28;20038;-85
2022/12/04 01:01:29;;;;;;;57.95;28.58;;;0.60;99.90;;;;;;5005851;28;20128;-85
2022/12/04 01:03:55;;;;;;;53.88;27.52;;;0.60;99.90;;;;;;5008562;28;20041;-85
2022/12/04 01:06:30;;;;;;;52.35;27.42;;;0.60;99.90;;;;;;5028545;28;20044;-85
2022/12/04 01:08:57;;;;;;;54.20;27.30;;;0.60;99.90;;;;;;5006482;28;20037;-85
2022/12/04 01:11:25;;;;;;;53.72;26.92;;;0.60;99.90;;;;;;5018094;28;20042;-85
2022/12/04 01:13:51;;;;;;;54.30;28.23;;;0.60;99.90;;;;;;5012832;28;20042;-85
2022/12/04 01:16:21;;;;;;;53.42;28.20;;;0.60;99.90;;;;;;5010920;28;20120;-85
2022/12/04 01:18:47;;;;;;;55.30;28.65;;;0.60;99.90;;;;;;5027013;28;20052;-85
2022/12/04 01:21:13;;;;;;;53.15;28.60;;;0.50;99.90;;;;;;5011580;28;20088;-85
2022/12/04 01:23:39;;;;;;;57.83;28.67;;;0.60;99.90;;;;;;5012262;28;20397;-85
2022/12/04 01:26:04;;;;;;;53.50;28.15;;;0.60;99.90;;;;;;5022217;28;20489;-85
2022/12/04 01:28:30;;;;;;;53.42;27.45;;;0.60;99.90;;;;;;5022134;28;20549;-85
2022/12/04 01:31:09;;;;;;;59.50;29.02;;;0.60;99.90;;;;;;5025885;28;20037;-85
2022/12/04 01:33:36;;;;;;;55.22;28.25;;;0.60;99.90;;;;;;5024785;28;20524;-86
2022/12/04 01:36:04;;;;;;;55.25;28.20;;;0.60;99.90;;;;;;5010971;28;20040;-86
2022/12/04 01:38:30;;;;;;;56.40;28.98;;;0.60;99.90;;;;;;5003717;28;20180;-85
2022/12/04 01:40:56;;;;;;;56.20;29.60;;;0.60;99.90;;;;;;5020953;28;20580;-85
2022/12/04 01:43:23;;;;;;;50.55;27.50;;;0.60;99.90;;;;;;5009592;28;20041;-85
2022/12/04 01:45:56;;;;;;;55.03;27.92;;;0.60;99.90;;;;;;5020431;28;20038;-84
2022/12/04 01:48:31;;;;;;;57.83;29.70;;;0.60;99.90;;;;;;5026245;28;20124;-84
2022/12/04 01:51:03;;;;;;;56.38;29.42;;;0.50;99.90;;;;;;5028139;28;20292;-84
2022/12/04 01:53:30;;;;;;;57.40;29.92;;;0.60;99.90;;;;;;5019134;28;20087;-83
2022/12/04 01:55:56;;;;;;;56.13;28.98;;;0.60;99.90;;;;;;5011188;28;20026;-84
2022/12/04 01:58:28;;;;;;;56.85;29.02;;;0.60;99.90;;;;;;5006903;28;20033;-84
2022/12/04 02:00:57;;;;;;;56.13;29.70;;;0.60;99.90;;;;;;5022526;28;20034;-84
2022/12/04 02:03:23;;;;;;;57.05;29.45;;;0.60;99.90;;;;;;5008396;28;20052;-83
2022/12/04 02:05:48;;;;;;;55.42;29.63;;;0.60;99.90;;;;;;5025680;28;20045;-84
2022/12/04 02:08:14;;;;;;;58.60;30.75;;;0.50;99.90;;;;;;5013046;28;20121;-83
2022/12/04 02:11:02;;;;;;;58.75;29.88;;;0.50;99.90;;;;;;5015529;28;20048;-84
2022/12/04 02:13:49;;;;;;;59.70;28.50;;;0.60;99.90;;;;;;5008383;28;20076;-83
2022/12/04 02:16:45;;;;;;;56.97;29.05;;;0.60;99.90;;;;;;5020982;28;20045;-84
2022/12/04 02:19:32;;;;;;;59.65;30.50;;;0.60;99.90;;;;;;5020653;28;20033;-84
2022/12/04 02:22:00;;;;;;;58.65;30.77;;;0.60;99.90;;;;;;5011175;28;20041;-83
2022/12/04 02:24:50;;;;;;;56.38;29.85;;;0.50;99.90;;;;;;5001074;28;20426;-83
2022/12/04 02:27:38;;;;;;;59.95;29.33;;;0.50;99.90;;;;;;5004949;28;20112;-84
2022/12/04 02:30:12;;;;;;;58.25;29.77;;;0.50;99.90;;;;;;5022039;28;20112;-84
2022/12/04 02:32:44;;;;;;;61.20;30.08;;;0.50;99.90;;;;;;5017195;28;20374;-84
2022/12/04 02:35:14;;;;;;;55.75;29.30;;;0.50;99.90;;;;;;5005194;28;20037;-83
2022/12/04 02:37:45;;;;;;;58.30;29.58;;;0.50;99.90;;;;;;5021533;28;20069;-84
2022/12/04 02:40:19;;;;;;;61.15;29.35;;;0.50;99.90;;;;;;5009944;28;20029;-84
2022/12/04 02:43:06;;;;;;;56.80;29.38;;;0.60;99.90;;;;;;5028384;28;20060;-84
2022/12/04 02:45:44;;;;;;;61.05;29.58;;;0.50;99.90;;;;;;5016711;28;20080;-84
2022/12/04 02:48:14;;;;;;;52.72;27.98;;;0.60;99.90;;;;;;5003484;28;20042;-83
2022/12/04 02:50:40;;;;;;;57.90;28.73;;;0.50;99.90;;;;;;5019928;28;20029;-84
2022/12/04 02:53:34;;;;;;;57.03;29.05;;;0.60;99.90;;;;;;5017221;28;20052;-83
2022/12/04 02:56:05;;;;;;;55.30;28.00;;;0.60;99.90;;;;;;5001235;28;20128;-84
2022/12/04 02:58:36;;;;;;;54.50;28.40;;;0.50;99.90;;;;;;5027047;28;20045;-84
2022/12/04 03:01:18;;;;;;;56.05;28.88;;;0.60;99.90;;;;;;5023020;28;20517;-84
2022/12/04 03:04:07;;;;;;;59.17;28.67;;;0.60;99.90;;;;;;5021606;28;20409;-83
2022/12/04 03:06:37;;;;;;;59.72;29.77;;;0.60;99.90;;;;;;5036670;28;20045;-83
2022/12/04 03:09:25;;;;;;;60.28;31.08;;;0.60;99.90;;;;;;5018447;28;20152;-83
2022/12/04 03:12:06;;;;;;;57.35;28.58;;;0.60;99.90;;;;;;5014459;28;20061;-83
2022/12/04 03:14:37;;;;;;;60.67;29.73;;;0.60;99.90;;;;;;5034175;28;20076;-84
2022/12/04 03:17:14;;;;;;;63.28;31.30;;;0.60;99.90;;;;;;5033319;28;20041;-84
2022/12/04 03:19:47;;;;;;;51.90;28.73;;;0.50;99.90;;;;;;5032902;28;20129;-83
2022/12/04 03:22:17;;;;;;;57.58;28.98;;;0.60;99.90;;;;;;5016792;28;20038;-83
2022/12/04 03:24:49;;;;;;;57.55;29.10;;;0.60;99.90;;;;;;5032789;28;20041;-83
2022/12/04 03:27:39;;;;;;;60.90;30.42;;;0.50;99.90;;;;;;5016460;28;20045;-83
2022/12/04 03:30:08;;;;;;;56.63;29.08;;;0.50;99.90;;;;;;5012829;28;20030;-83
2022/12/04 03:32:51;;;;;;;58.67;31.17;;;0.50;99.90;;;;;;5030330;28;20421;-84
2022/12/04 03:35:50;;;;;;;64.88;30.95;;;0.50;99.90;;;;;;5013652;28;20037;-84
2022/12/04 03:38:49;;;;;;;54.47;29.10;;;0.50;99.90;;;;;;5021759;28;20041;-83
2022/12/04 03:41:30;;;;;;;55.92;29.90;;;0.50;99.90;;;;;;5021926;28;20037;-84
2022/12/04 03:44:14;;;;;;;63.50;30.08;;;0.50;99.90;;;;;;5028474;28;20497;-83
2022/12/04 03:46:45;;;;;;;;;;;0.50;99.90;;;;;;5029225;28;20044;-84
2022/12/04 03:49:23;;;;;;;62.53;30.77;;;0.50;99.90;;;;;;5019370;28;20288;-84
2022/12/04 03:52:23;;;;;;;60.85;30.10;;;0.50;99.90;;;;;;5009907;28;20029;-84
2022/12/04 03:54:52;;;;;;;62.17;30.33;;;0.60;99.90;;;;;;5017031;28;20045;-84
2022/12/04 03:57:23;;;;;;;58.00;29.50;;;0.50;99.90;;;;;;5011222;28;20072;-84
2022/12/04 04:00:20;;;;;;;59.53;30.65;;;0.50;99.90;;;;;;5011927;28;20048;-83
2022/12/04 04:02:56;;;;;;;60.50;30.05;;;0.60;99.90;;;;;;5025541;28;20050;-84
2022/12/04 04:05:24;;;;;;;59.90;29.63;;;0.60;99.90;;;;;;5026795;28;20039;-83
2022/12/04 04:07:54;;;;;;;57.58;29.75;;;0.50;99.90;;;;;;5012571;28;20082;-83
2022/12/04 04:10:23;;;;;;;61.70;30.40;;;0.40;99.90;;;;;;5016216;28;20127;-84
2022/12/04 04:24:24;;;;;;;62.47;30.02;;;0.50;99.90;;;;;;5025544;28;20041;-83
2022/12/04 04:26:51;;;;;;;58.88;29.17;;;0.50;99.90;;;;;;5029198;28;20076;-83
2022/12/04 04:29:16;;;;;;;57.67;29.00;;;0.50;99.90;;;;;;5020791;28;20033;-83
2022/12/04 04:31:52;;;;;;;63.47;31.13;;;0.50;99.90;;;;;;5019984;28;20063;-84
2022/12/04 04:34:38;;;;;;;56.88;28.92;;;0.50;99.90;;;;;;5007103;28;20042;-84
2022/12/04 04:37:23;;;;;;;63.25;31.63;;;0.50;99.90;;;;;;5020176;28;20044;-84
2022/12/04 04:40:17;;;;;;;58.28;29.58;;;0.50;99.90;;;;;;5010211;28;20052;-84
2022/12/04 04:43:01;;;;;;;;;;;0.50;99.90;;;;;;5027470;28;20049;-84
2022/12/04 04:45:59;;;;;;;57.80;29.17;;;0.50;99.90;;;;;;5007318;28;20369;-84
2022/12/04 04:48:30;;;;;;;63.92;30.77;;;0.50;99.90;;;;;;5014192;28;20054;-83
2022/12/04 04:50:57;;;;;;;53.25;28.20;;;0.50;99.90;;;;;;4997412;28;20121;-83
2022/12/04 04:53:29;;;;;;;59.28;30.85;;;0.50;99.90;;;;;;5009836;28;20603;-84
2022/12/04 04:55:55;;;;;;;64.10;31.52;;;0.50;99.90;;;;;;5000820;28;20137;-84
2022/12/04 04:58:21;;;;;;;60.05;30.98;;;0.50;99.90;;;;;;5011950;28;20068;-84
2022/12/04 05:00:55;;;;;;;62.42;31.35;;;0.50;99.90;;;;;;5004487;28;20076;-84
2022/12/04 05:03:20;;;;;;;57.70;30.30;;;0.50;99.90;;;;;;5020738;28;20069;-84
2022/12/04 05:05:46;;;;;;;65.57;31.88;;;0.50;99.90;;;;;;5009837;28;20069;-84
2022/12/04 05:08:11;;;;;;;61.83;30.95;;;0.50;99.90;;;;;;5020410;28;20038;-83
2022/12/04 05:10:37;;;;;;;57.15;29.02;;;0.50;99.90;;;;;;5009562;28;20033;-83
2022/12/04 05:13:02;;;;;;;58.22;29.05;;;0.50;99.90;;;;;;5025067;28;20092;-84
2022/12/04 05:15:28;;;;;;;60.75;30.90;;;0.40;99.90;;;;;;5015772;28;20033;-83
2022/12/04 05:17:53;;;;;;;61.78;31.25;;;0.50;99.90;;;;;;5010786;28;20033;-84
2022/12/04 05:20:19;;;;;;;58.50;30.98;;;0.50;99.90;;;;;;5007428;28;20065;-84
2022/12/04 05:22:45;;;;;;;58.75;29.75;;;0.40;99.90;;;;;;5022602;28;20057;-84
2022/12/04 05:25:10;;;;;;;57.42;29.52;;;0.40;99.90;;;;;;5004635;28;20030;-83
2022/12/04 05:27:36;;;;;;;60.30;30.92;;;0.40;99.90;;;;;;5012125;28;20037;-84
2022/12/04 05:30:03;;;;;;;60.50;30.33;;;0.40;99.90;;;;;;5030405;28;20448;-84
2022/12/04 05:32:29;;;;;;;58.60;28.75;;;0.40;99.90;;;;;;5011793;28;20048;-84
2022/12/04 05:34:56;;;;;;;56.17;28.08;;;0.40;99.90;;;;;;5029775;28;20044;-84
2022/12/04 05:37:21;;;;;;;61.00;29.88;;;0.40;99.90;;;;;;5027915;28;20441;-83
2022/12/04 05:39:47;;;;;;;65.13;29.90;;;0.40;99.90;;;;;;5027612;28;20040;-84
2022/12/04 05:42:13;;;;;;;59.63;30.75;;;0.50;99.90;;;;;;5025630;28;20045;-84
2022/12/04 05:44:39;;;;;;;59.38;29.75;;;0.40;99.90;;;;;;5012531;28;20112;-84
2022/12/04 05:47:05;;;;;;;57.67;29.23;;;0.50;99.90;;;;;;5024681;28;20195;-84
2022/12/04 05:49:32;;;;;;;58.72;29.67;;;0.40;99.90;;;;;;5029676;28;20049;-84
2022/12/04 05:51:59;;;;;;;59.28;29.98;;;0.40;99.90;;;;;;5010116;28;20038;-83
2022/12/04 05:54:25;;;;;;;57.70;28.95;;;0.40;99.90;;;;;;5032671;28;20509;-84
2022/12/04 05:56:50;;;;;;;55.60;29.52;;;0.50;99.90;;;;;;5019789;28;20098;-84
2022/12/04 05:59:17;;;;;;;55.65;29.27;;;0.50;99.90;;;;;;5010724;28;20145;-85
2022/12/04 06:01:43;;;;;;;55.42;28.35;;;0.50;99.90;;;;;;5020203;28;20527;-84
2022/12/04 06:04:10;;;;;;;55.17;29.05;;;0.50;99.90;;;;;;5019691;28;20502;-84
2022/12/04 06:06:37;;;;;;;54.90;29.20;;;0.40;99.90;;;;;;5030748;28;20051;-84
2022/12/04 06:09:06;;;;;;;65.90;32.38;;;0.50;99.90;;;;;;5029634;28;20056;-83
2022/12/04 06:11:34;;;;;;;57.35;29.02;;;0.40;99.90;;;;;;5031288;28;20505;-84
2022/12/04 06:14:02;;;;;;;60.03;29.38;;;0.40;99.90;;;;;;5013232;28;20393;-84
2022/12/04 06:16:31;;;;;;;56.40;28.55;;;0.50;99.90;;;;;;5019709;28;20107;-84
2022/12/04 06:18:59;;;;;;;56.42;29.30;;;0.50;99.90;;;;;;4998470;28;20048;-84
2022/12/04 06:21:30;;;;;;;59.13;29.38;;;0.40;99.90;;;;;;5001659;28;20056;-84
2022/12/04 06:23:56;;;;;;;58.28;29.67;;;0.50;99.90;;;;;;5002903;28;20037;-84
2022/12/04 06:26:22;;;;;;;55.67;29.02;;;0.50;99.90;;;;;;5009836;28;20041;-84
2022/12/04 06:28:48;;;;;;;57.80;29.48;;;0.40;99.90;;;;;;5005707;28;20121;-84
2022/12/04 06:31:15;;;;;;;56.25;30.38;;;0.50;99.90;;;;;;5008871;28;20037;-84
2022/12/04 06:33:41;;;;;;;59.72;29.58;;;0.50;99.90;;;;;;5029802;28;20038;-84
2022/12/04 06:36:11;;;;;;;62.28;28.75;;;0.50;99.90;;;;;;5029768;28;20037;-84
2022/12/04 06:38:38;;;;;;;53.95;28.75;;;0.40;99.90;;;;;;5008327;28;20486;-84
2022/12/04 06:41:05;;;;;;;54.78;27.50;;;0.40;99.90;;;;;;5040431;28;20741;-84
2022/12/04 06:43:31;;;;;;;53.20;27.25;;;0.40;99.90;;;;;;5030520;28;20045;-84
2022/12/04 06:46:01;;;;;;;58.40;28.88;;;0.40;99.90;;;;;;5009277;28;20048;-84
2022/12/04 06:48:28;;;;;;;60.00;29.67;;;0.40;99.90;;;;;;5019159;28;20045;-84
2022/12/04 06:51:01;;;;;;;58.88;28.30;;;0.40;99.90;;;;;;5019765;28;20037;-84
2022/12/04 06:53:29;;;;;;;56.37;28.10;;;0.40;99.90;;;;;;5023663;28;20038;-84
2022/12/04 06:55:58;;;;;;;55.00;28.95;;;0.40;99.90;;;;;;5018580;28;20038;-84
2022/12/04 06:58:24;;;;;;;54.03;28.83;;;0.40;99.90;;;;;;5022867;28;20514;-83
2022/12/04 07:00:50;;;;;;;55.45;29.27;;;0.40;99.90;;;;;;5013573;28;20079;-84
2022/12/04 07:03:16;;;;;;;57.38;28.52;;;0.40;99.90;;;;;;5001910;28;20158;-83
2022/12/04 07:05:42;;;;;;;55.45;28.73;;;0.40;99.90;;;;;;5010649;28;20124;-84
2022/12/04 07:08:07;;;;;;;54.33;27.55;;;0.40;99.90;;;;;;5019749;28;20042;-84
2022/12/04 07:10:35;;;;;;;60.00;28.88;;;0.40;99.90;;;;;;5022199;28;20091;-84
2022/12/04 07:13:01;;;;;;;54.55;28.67;;;0.40;99.90;;;;;;5015093;28;20045;-84
2022/12/04 07:15:27;;;;;;;57.95;27.85;;;0.40;99.90;;;;;;5007334;28;20041;-84
2022/12/04 07:17:52;;;;;;;57.25;28.58;;;0.40;99.90;;;;;;5006858;28;20038;-84
2022/12/04 07:20:18;;;;;;;56.70;30.27;;;0.40;99.90;;;;;;4999931;28;20038;-83
2022/12/04 07:22:44;;;;;;;54.20;28.10;;;0.40;99.90;;;;;;5021484;28;20061;-84
2022/12/04 07:25:12;;;;;;;60.15;30.38;;;0.40;99.90;;;;;;5018754;28;20071;-84
2022/12/04 07:27:37;;;;;;;58.38;28.45;;;0.40;99.90;;;;;;5003644;28;20042;-84
2022/12/04 07:30:04;;;;;;;63.78;30.45;;;0.40;99.90;;;;;;5021803;28;20048;-84
2022/12/04 07:32:30;;;;;;;58.42;28.48;;;0.40;99.90;;;;;;5006611;28;20041;-86
2022/12/04 07:34:56;;;;;;;63.33;30.50;;;0.40;99.90;;;;;;5001768;28;20029;-86
2022/12/04 07:37:21;;;;;;;62.15;30.05;;;0.40;99.90;;;;;;5018740;28;20390;-86
2022/12/04 07:39:53;;;;;;;56.33;28.75;;;0.40;99.90;;;;;;5001543;28;20075;-87
2022/12/04 07:42:21;;;;;;;58.78;28.88;;;0.40;99.90;;;;;;5008773;28;20041;-86
2022/12/04 07:44:47;;;;;;;59.00;29.77;;;0.50;99.90;;;;;;5008313;28;20041;-85
2022/12/04 07:47:13;;;;;;;57.42;29.55;;;0.40;99.90;;;;;;5027704;28;20045;-86
2022/12/04 07:49:38;;;;;;;56.35;29.38;;;0.40;99.90;;;;;;5008739;28;20171;-86
2022/12/04 07:52:05;;;;;;;64.95;30.20;;;0.40;99.90;;;;;;5012105;28;20092;-86
2022/12/04 07:54:30;;;;;;;59.92;30.05;;;0.40;99.90;;;;;;5024757;28;20126;-86
2022/12/04 07:56:56;;;;;;;62.25;29.65;;;0.40;99.90;;;;;;5007219;28;20216;-87
2022/12/04 07:59:22;;;;;;;58.35;30.08;;;0.40;99.90;;;;;;5003048;28;20030;-89
2022/12/04 08:01:47;;;;;;;59.50;29.15;;;0.50;99.90;;;;;;5008823;28;20038;-86
2022/12/04 08:04:13;;;;;;;58.85;30.92;;;0.50;99.90;;;;;;5021111;28;20037;-86
2022/12/04 08:06:39;;;;;;;61.65;30.52;;;0.50;99.90;;;;;;5016430;28;20048;-86
2022/12/04 08:09:06;;;;;;;66.55;31.45;;;0.50;99.90;;;;;;5027169;28;20055;-86
2022/12/04 08:11:32;;;;;;;61.45;29.90;;;0.50;99.90;;;;;;5013148;28;20125;-86
2022/12/04 08:14:04;;;;;;;60.42;30.98;;;0.50;99.90;;;;;;5018302;28;20133;-87
2022/12/04 08:16:31;;;;;;;56.88;28.90;;;0.50;99.90;;;;;;5007280;28;20029;-86
2022/12/04 08:18:58;;;;;;;63.80;30.05;;;0.50;99.90;;;;;;5012378;28;20091;-90
2022/12/04 08:21:27;;;;;;;58.97;31.45;;;0.60;99.90;;;;;;5012773;28;20038;-86
2022/12/04 08:23:54;;;;;;;58.50;28.95;;;0.60;99.90;;;;;;5013919;28;20033;-88
2022/12/04 08:26:22;;;;;;;62.42;29.65;;;0.60;99.90;;;;;;5029566;28;20038;-87
2022/12/04 08:28:48;;;;;;;62.20;30.80;;;0.60;99.90;;;;;;5038855;28;20037;-87
2022/12/04 08:31:20;;;;;;;65.05;31.08;;;0.60;99.90;;;;;;5005677;28;20034;-87
2022/12/04 08:33:47;;;;;;;61.03;30.20;;;0.60;99.90;;;;;;5009654;28;20048;-87
2022/12/04 08:36:15;;;;;;;60.33;30.15;;;0.60;99.90;;;;;;5014051;28;20048;-88
2022/12/04 08:38:41;;;;;;;60.22;29.70;;;0.60;99.90;;;;;;5019859;28;20064;-87
2022/12/04 08:41:10;;;;;;;61.85;29.10;;;0.70;99.90;;;;;;5014734;28;20033;-88
2022/12/04 08:43:35;;;;;;;58.85;29.60;;;0.70;99.90;;;;;;5009865;28;20041;-87
2022/12/04 08:46:05;;;;;;;61.65;30.85;;;0.70;99.90;;;;;;5017819;28;20045;-88
2022/12/04 08:48:32;;;;;;;62.95;30.73;;;0.70;99.90;;;;;;5029759;28;20052;-87
2022/12/04 08:50:58;;;;;;;62.38;30.27;;;0.70;99.90;;;;;;5019180;28;20029;-88
2022/12/04 08:53:24;;;;;;;59.15;29.88;;;0.70;99.90;;;;;;5018670;28;20494;-87
2022/12/04 08:55:53;;;;;;;61.75;30.58;;;0.70;99.90;;;;;;5030133;28;20044;-91
2022/12/04 08:58:19;;;;;;;61.13;30.92;;;0.70;99.90;;;;;;5011312;28;20034;-86
2022/12/04 09:00:45;;;;;;;64.15;30.75;;;0.80;99.90;;;;;;5010327;28;20408;-87
2022/12/04 09:03:16;;;;;;;60.40;29.90;;;0.80;99.90;;;;;;5026848;28;20053;-87
2022/12/04 09:05:44;;;;;;;59.17;29.33;;;0.80;99.90;;;;;;5021764;28;20037;-87
2022/12/04 09:08:11;;;;;;;67.82;31.92;;;0.80;99.90;;;;;;5019277;28;20033;-87
2022/12/04 09:10:37;;;;;;;58.53;30.73;;;0.80;99.90;;;;;;5026750;28;20120;-87
2022/12/04 09:13:03;;;;;;;68.70;31.45;;;0.80;99.90;;;;;;5032716;28;20043;-86
2022/12/04 09:15:29;;;;;;;63.60;30.77;;;0.80;99.90;;;;;;5015695;28;20508;-86
2022/12/04 09:17:55;;;;;;;61.92;30.23;;;0.90;99.90;;;;;;5020698;28;20033;-86
2022/12/04 09:20:21;;;;;;;61.70;30.25;;;0.90;99.90;;;;;;5037185;28;20046;-86
2022/12/04 09:22:46;;;;;;;64.30;31.23;;;0.90;99.90;;;;;;5035933;28;20485;-87
2022/12/04 09:25:12;;;;;;;61.95;31.25;;;0.90;99.90;;;;;;5016544;28;20091;-87
2022/12/04 09:27:40;;;;;;;63.03;29.70;;;1.00;99.90;;;;;;5015072;28;20128;-88
2022/12/04 09:30:08;;;;;;;57.70;29.52;;;1.00;99.90;;;;;;5013945;28;20137;-88
2022/12/04 09:32:33;;;;;;;58.47;29.85;;;1.00;99.90;;;;;;5030994;28;20049;-86
2022/12/04 09:34:59;;;;;;;61.97;30.33;;;1.00;99.90;;;;;;5015551;28;20033;-87
2022/12/04 09:37:25;;;;;;;62.95;30.80;;;1.10;99.90;;;;;;5027230;28;20029;-86
2022/12/04 09:39:50;;;;;;;64.07;31.15;;;1.10;99.90;;;;;;5021413;28;20393;-86
2022/12/04 09:42:28;;;;;;;62.70;31.45;;;1.10;99.90;;;;;;5011512;28;20073;-87
2022/12/04 09:45:20;;;;;;;58.35;30.88;;;1.10;99.90;;;;;;5037506;28;20041;-87
2022/12/04 09:47:50;;;;;;;60.05;30.08;;;1.20;99.90;;;;;;5029779;28;20037;-87
2022/12/04 09:50:39;;;;;;;63.63;31.50;;;1.20;99.90;;;;;;5037613;28;20083;-85
2022/12/04 09:53:13;;;;;;;62.15;29.70;;;1.20;99.90;;;;;;5032325;28;20045;-86
2022/12/04 09:55:43;;;;;;;58.08;29.73;;;1.20;99.90;;;;;;5029280;28;20044;-87
2022/12/04 09:58:22;;;;;;;65.65;30.83;;;1.20;99.90;;;;;;5011444;28;20113;-86
2022/12/04 10:00:50;;;;;;;60.00;30.33;;;1.20;99.90;;;;;;5012535;28;20042;-86
2022/12/04 10:03:19;;;;;;;57.50;31.60;;;1.30;99.90;;;;;;5014120;28;20552;-86
2022/12/04 10:05:45;;;;;;;61.13;31.60;;;1.30;99.90;;;;;;5005732;28;20061;-85
2022/12/04 10:08:28;;;;;;;60.00;30.83;;;1.30;99.90;;;;;;5029541;28;20236;-85
2022/12/04 10:11:24;;;;;;;66.07;31.83;;;1.40;99.90;;;;;;5026855;28;20052;-85
2022/12/04 10:14:18;;;;;;;62.10;31.92;;;1.30;99.90;;;;;;5029810;28;20077;-84
2022/12/04 10:16:46;;;;;;;60.53;30.38;;;1.40;99.90;;;;;;5010783;28;20671;-85
2022/12/04 10:19:30;;;;;;;68.50;31.65;;;1.40;99.90;;;;;;5021034;28;20033;-85
2022/12/04 10:22:05;;;;;;;57.25;29.42;;;1.40;99.90;;;;;;5002550;28;20502;-85
2022/12/04 10:24:35;;;;;;;66.15;31.17;;;1.40;99.90;;;;;;5009102;28;20053;-84
2022/12/04 10:27:11;;;;;;;65.05;31.42;;;1.40;99.90;;;;;;5015185;28;20487;-84
2022/12/04 10:29:41;;;;;;;60.13;31.40;;;1.50;99.90;;;;;;5035692;28;20029;-84
2022/12/04 10:32:33;;;;;;;60.55;29.88;;;1.50;99.90;;;;;;5031971;28;20573;-83
2022/12/04 10:35:17;;;;;;;55.13;28.63;;;1.50;99.90;;;;;;5028817;28;20049;-83
2022/12/04 10:37:43;;;;;;;;;;;1.50;99.90;;;;;;5034034;28;20029;-86
2022/12/04 10:40:26;;;;;;;56.35;27.65;;;1.50;99.90;;;;;;5029398;28;19921;-84
2022/12/04 10:43:13;;;;;;;53.38;27.38;;;1.50;99.90;;;;;;5018528;28;20041;-84
2022/12/04 10:45:42;;;;;;;58.47;28.33;;;1.60;99.90;;;;;;5030623;28;20037;-84
2022/12/04 10:48:19;;;;;;;52.85;28.10;;;1.60;99.90;;;;;;5017403;28;20449;-85
2022/12/04 10:50:45;;;;;;;53.83;28.83;;;1.60;99.90;;;;;;5017806;28;20108;-84
2022/12/04 10:53:14;;;;;;;50.50;26.65;;;1.60;99.90;;;;;;5017929;28;20608;-85
2022/12/04 10:55:40;;;;;;;53.00;28.73;;;1.70;99.90;;;;;;5010561;28;20038;-84
2022/12/04 10:58:16;;;;;;;49.75;26.27;;;1.70;99.90;;;;;;5030533;28;20065;-85
2022/12/04 11:00:46;;;;;;;49.05;27.08;;;1.80;99.90;;;;;;5032727;28;20045;-86
2022/12/04 11:03:26;;;;;;;55.60;27.33;;;1.80;99.90;;;;;;5030126;28;20045;-87
2022/12/04 11:06:01;;;;;;;47.38;26.27;;;1.80;99.90;;;;;;5027886;28;20504;-84
2022/12/04 11:08:40;;;;;;;47.67;26.38;;;1.80;99.90;;;;;;5024207;28;20344;-86
2022/12/04 11:11:10;;;;;;;47.47;25.90;;;1.80;99.90;;;;;;5002458;28;20454;-86
2022/12/04 11:13:36;;;;;;;44.90;23.45;;;1.90;99.90;;;;;;5005788;28;20034;-86
2022/12/04 11:16:02;;;;;;;45.95;25.52;;;1.90;99.90;;;;;;5009963;28;20032;-89
2022/12/04 11:18:34;;;;;;;46.13;25.08;;;1.90;99.90;;;;;;5023767;28;20044;-87
2022/12/04 11:21:05;;;;;;;45.08;24.98;;;1.90;99.90;;;;;;5020066;28;20035;-89
2022/12/04 11:23:41;;;;;;;44.80;23.48;;;2.00;99.90;;;;;;5007124;28;20060;-89
2022/12/04 11:26:07;;;;;;;45.40;22.73;;;2.00;99.90;;;;;;5035042;28;20037;-88
2022/12/04 11:28:35;;;;;;;41.20;23.83;;;2.00;99.90;;;;;;5032548;28;20104;-88
2022/12/04 11:31:03;;;;;;;39.92;23.70;;;2.10;99.90;;;;;;5022838;28;20122;-88
2022/12/04 11:33:33;;;;;;;43.20;22.52;;;2.10;99.90;;;;;;5029719;28;20048;-88
2022/12/04 11:36:03;;;;;;;40.28;21.55;;;2.20;99.90;;;;;;5014798;28;20497;-88
2022/12/04 11:38:32;;;;;;;36.83;21.55;;;2.20;99.90;;;;;;5010141;28;20080;-88
2022/12/04 11:40:59;;;;;;;40.55;21.90;;;2.20;99.90;;;;;;5013894;28;20413;-87
2022/12/04 11:43:28;;;;;;;38.42;21.65;;;2.20;99.90;;;;;;5022222;28;20076;-87
2022/12/04 11:46:04;;;;;;;36.80;21.45;;;2.20;99.90;;;;;;5017996;28;20042;-89
2022/12/04 11:48:31;;;;;;;37.47;21.40;;;2.30;99.90;;;;;;5015424;28;20033;-87
2022/12/04 11:51:23;;;;;;;36.00;20.95;;;2.30;99.90;;;;;;5008691;28;20048;-88
2022/12/04 11:54:11;;;;;;;35.00;19.38;;;2.30;99.90;;;;;;5009811;28;20088;-87
2022/12/04 11:57:03;;;;;;;34.42;19.35;;;2.40;99.90;;;;;;5024401;28;20121;-87
2022/12/04 11:59:38;;;;;;;31.40;19.13;;;2.40;99.90;;;;;;4975062;28;20435;-87
2022/12/04 12:02:29;;;;;;;32.25;18.38;;;2.50;99.90;;;;;;5018059;28;20037;-88
2022/12/04 12:04:58;;;;;;;35.95;19.30;;;2.50;99.90;;;;;;5000999;28;20402;-88
2022/12/04 12:07:51;;;;;;;31.75;17.63;;;2.50;99.90;;;;;;5013915;28;20061;-88
2022/12/04 12:10:22;;;;;;;34.30;19.83;;;2.50;99.90;;;;;;5023744;28;20043;-88
2022/12/04 12:13:12;;;;;;;31.73;17.38;;;2.60;99.90;;;;;;5018568;28;20034;-89
2022/12/04 12:15:48;;;;;;;30.52;18.02;;;2.60;99.90;;;;;;5027171;28;20030;-87
2022/12/04 12:18:32;;;;;;;29.58;17.20;;;2.50;99.90;;;;;;5016358;28;20049;-90
2022/12/04 12:21:21;;;;;;;30.23;17.77;;;2.50;99.90;;;;;;5023167;28;20034;-87
2022/12/04 12:24:18;;;;;;;30.55;18.50;;;2.50;99.90;;;;;;5026818;28;20510;-86
2022/12/04 12:27:07;;;;;;;32.50;19.55;;;2.60;99.90;;;;;;5012223;28;20061;-89
2022/12/04 12:29:41;;;;;;;33.42;19.17;;;2.50;99.90;;;;;;5018013;28;20069;-89
2022/12/04 12:32:28;;;;;;;33.35;18.10;;;2.50;99.90;;;;;;5030334;28;20041;-87
2022/12/04 12:34:54;;;;;;;32.28;18.30;;;2.50;99.90;;;;;;5026296;28;20509;-86
2022/12/04 12:37:34;;;;;;;30.13;17.13;;;2.50;99.90;;;;;;5008322;28;20033;-86
2022/12/04 12:40:27;;;;;;;31.98;18.45;;;2.50;99.90;;;;;;5011088;28;20076;-87
2022/12/04 12:43:13;;;;;;;32.97;18.05;;;2.50;99.90;;;;;;5000063;28;20501;-86
2022/12/04 12:45:55;;;;;;;32.28;18.90;;;2.60;99.90;;;;;;5015096;28;20029;-87
2022/12/04 12:48:37;;;;;;;31.42;17.88;;;2.60;99.90;;;;;;5015374;28;20037;-87
2022/12/04 12:51:30;;;;;;;29.55;17.50;;;2.60;99.90;;;;;;5015662;28;20037;-86
2022/12/04 12:54:07;;;;;;;30.38;17.58;;;2.50;99.90;;;;;;5008394;28;20117;-87
2022/12/04 12:56:39;;;;;;;33.38;18.85;;;2.60;99.90;;;;;;5032666;28;20029;-87
2022/12/04 12:59:14;;;;;;;32.08;19.10;;;2.60;99.90;;;;;;5021253;28;20532;-85
2022/12/04 13:02:19;;;;;;;35.30;19.50;;;2.50;99.90;;;;;;5028949;28;20032;-87
2022/12/04 13:04:48;;;;;;;34.25;19.48;;;2.50;99.90;;;;;;5027947;28;20040;-86
2022/12/04 13:07:17;;;;;;;35.75;20.08;;;2.60;99.90;;;;;;5015193;28;20084;-84
2022/12/04 13:10:14;;;;;;;36.05;19.80;;;2.50;99.90;;;;;;5014921;28;20439;-88
2022/12/04 13:12:51;;;;;;;36.88;18.92;;;2.50;99.90;;;;;;5008936;28;20628;-87